sensor_id;sensor_type;location;lat;lon;timestamp;pressure;altitude;pressure_sealevel;temperature
68911;BMP180;55953;51.650;-0.522;2023-04-07T00:01:33;100953.00;;;6.80
68911;BMP180;55953;51.650;-0.522;2023-04-07T00:04:01;100961.20;;;6.80
68911;BMP180;55953;51.650;-0.522;2023-04-07T00:06:30;100965.60;;;6.80
68911;BMP180;55953;51.650;-0.522;2023-04-07T00:08:57;100964.60;;;6.80
68911;BMP180;55953;51.650;-0.522;2023-04-07T00:11:25;100970.00;;;6.70
68911;BMP180;55953;51.650;-0.522;2023-04-07T00:13:53;100965.60;;;6.70
68911;BMP180;55953;51.650;-0.522;2023-04-07T00:16:22;100963.60;;;6.70
68911;BMP180;55953;51.650;-0.522;2023-04-07T00:18:50;100968.80;;;6.70
68911;BMP180;55953;51.650;-0.522;2023-04-07T00:21:19;100966.40;;;6.70
68911;BMP180;55953;51.650;-0.522;2023-04-07T00:23:48;100968.60;;;6.70
68911;BMP180;55953;51.650;-0.522;2023-04-07T00:26:16;100975.00;;;6.68
68911;BMP180;55953;51.650;-0.522;2023-04-07T00:28:44;100978.60;;;6.60
68911;BMP180;55953;51.650;-0.522;2023-04-07T00:31:12;100984.20;;;6.60
68911;BMP180;55953;51.650;-0.522;2023-04-07T00:33:40;100983.60;;;6.60
68911;BMP180;55953;51.650;-0.522;2023-04-07T00:36:08;100980.60;;;6.60
68911;BMP180;55953;51.650;-0.522;2023-04-07T00:38:37;100981.80;;;6.60
68911;BMP180;55953;51.650;-0.522;2023-04-07T00:41:05;100987.20;;;6.58
68911;BMP180;55953;51.650;-0.522;2023-04-07T00:43:33;100984.00;;;6.60
68911;BMP180;55953;51.650;-0.522;2023-04-07T00:46:01;100989.00;;;6.58
68911;BMP180;55953;51.650;-0.522;2023-04-07T00:48:29;100985.60;;;6.50
68911;BMP180;55953;51.650;-0.522;2023-04-07T00:50:58;100987.00;;;6.50
68911;BMP180;55953;51.650;-0.522;2023-04-07T00:53:26;100987.00;;;6.50
68911;BMP180;55953;51.650;-0.522;2023-04-07T00:55:54;100990.00;;;6.50
68911;BMP180;55953;51.650;-0.522;2023-04-07T00:58:22;100992.20;;;6.40
68911;BMP180;55953;51.650;-0.522;2023-04-07T01:01:08;100991.80;;;6.40
68911;BMP180;55953;51.650;-0.522;2023-04-07T01:04:07;100994.00;;;6.40
68911;BMP180;55953;51.650;-0.522;2023-04-07T01:06:43;100993.00;;;6.40
68911;BMP180;55953;51.650;-0.522;2023-04-07T01:09:57;101001.40;;;6.40
68911;BMP180;55953;51.650;-0.522;2023-04-07T01:12:37;100997.20;;;6.40
68911;BMP180;55953;51.650;-0.522;2023-04-07T01:15:11;100999.40;;;6.40
68911;BMP180;55953;51.650;-0.522;2023-04-07T01:17:53;100995.00;;;6.36
68911;BMP180;55953;51.650;-0.522;2023-04-07T01:20:26;100996.80;;;6.30
68911;BMP180;55953;51.650;-0.522;2023-04-07T01:23:05;101000.80;;;6.30
68911;BMP180;55953;51.650;-0.522;2023-04-07T01:26:02;101004.60;;;6.30
68911;BMP180;55953;51.650;-0.522;2023-04-07T01:31:13;100994.80;;;6.20
68911;BMP180;55953;51.650;-0.522;2023-04-07T01:33:44;101004.20;;;6.20
68911;BMP180;55953;51.650;-0.522;2023-04-07T01:36:14;101004.80;;;6.20
68911;BMP180;55953;51.650;-0.522;2023-04-07T01:38:44;101008.80;;;6.20
68911;BMP180;55953;51.650;-0.522;2023-04-07T01:41:14;101011.20;;;6.20
68911;BMP180;55953;51.650;-0.522;2023-04-07T01:43:43;101010.00;;;6.20
68911;BMP180;55953;51.650;-0.522;2023-04-07T01:46:14;101005.60;;;6.20
68911;BMP180;55953;51.650;-0.522;2023-04-07T01:48:43;101010.60;;;6.18
68911;BMP180;55953;51.650;-0.522;2023-04-07T01:51:12;101005.60;;;6.10
68911;BMP180;55953;51.650;-0.522;2023-04-07T01:53:48;101008.00;;;6.10
68911;BMP180;55953;51.650;-0.522;2023-04-07T01:56:16;101010.60;;;6.10
68911;BMP180;55953;51.650;-0.522;2023-04-07T01:58:48;101006.80;;;6.00
68911;BMP180;55953;51.650;-0.522;2023-04-07T02:01:18;101005.40;;;6.00
68911;BMP180;55953;51.650;-0.522;2023-04-07T02:03:55;101007.40;;;6.00
68911;BMP180;55953;51.650;-0.522;2023-04-07T02:06:31;101013.00;;;5.98
68911;BMP180;55953;51.650;-0.522;2023-04-07T02:09:06;101021.60;;;5.92
68911;BMP180;55953;51.650;-0.522;2023-04-07T02:11:37;101026.20;;;5.90
68911;BMP180;55953;51.650;-0.522;2023-04-07T02:14:07;101022.20;;;5.90
68911;BMP180;55953;51.650;-0.522;2023-04-07T02:16:47;101024.40;;;5.90
68911;BMP180;55953;51.650;-0.522;2023-04-07T02:19:16;101025.20;;;5.90
68911;BMP180;55953;51.650;-0.522;2023-04-07T02:21:45;101031.40;;;5.80
68911;BMP180;55953;51.650;-0.522;2023-04-07T02:24:19;101033.20;;;5.80
68911;BMP180;55953;51.650;-0.522;2023-04-07T02:26:50;101034.60;;;5.88
68911;BMP180;55953;51.650;-0.522;2023-04-07T02:29:18;101035.40;;;5.80
68911;BMP180;55953;51.650;-0.522;2023-04-07T02:31:46;101035.00;;;5.80
68911;BMP180;55953;51.650;-0.522;2023-04-07T02:34:14;101033.40;;;5.80
68911;BMP180;55953;51.650;-0.522;2023-04-07T02:36:42;101035.60;;;5.80
68911;BMP180;55953;51.650;-0.522;2023-04-07T02:39:11;101037.60;;;5.80
68911;BMP180;55953;51.650;-0.522;2023-04-07T02:41:40;101036.60;;;5.80
68911;BMP180;55953;51.650;-0.522;2023-04-07T02:44:07;101040.20;;;5.80
68911;BMP180;55953;51.650;-0.522;2023-04-07T02:46:35;101037.00;;;5.80
68911;BMP180;55953;51.650;-0.522;2023-04-07T02:49:03;101036.60;;;5.80
68911;BMP180;55953;51.650;-0.522;2023-04-07T02:51:31;101039.40;;;5.80
68911;BMP180;55953;51.650;-0.522;2023-04-07T02:53:59;101035.00;;;5.90
68911;BMP180;55953;51.650;-0.522;2023-04-07T02:56:27;101034.00;;;5.92
68911;BMP180;55953;51.650;-0.522;2023-04-07T02:58:55;101027.20;;;6.00
68911;BMP180;55953;51.650;-0.522;2023-04-07T03:01:23;101032.40;;;6.00
68911;BMP180;55953;51.650;-0.522;2023-04-07T03:03:52;101029.80;;;6.00
68911;BMP180;55953;51.650;-0.522;2023-04-07T03:06:23;101032.80;;;6.00
68911;BMP180;55953;51.650;-0.522;2023-04-07T03:09:00;101038.60;;;5.96
68911;BMP180;55953;51.650;-0.522;2023-04-07T03:11:28;101029.20;;;5.90
68911;BMP180;55953;51.650;-0.522;2023-04-07T03:13:57;101035.40;;;5.90
68911;BMP180;55953;51.650;-0.522;2023-04-07T03:16:26;101033.60;;;5.90
68911;BMP180;55953;51.650;-0.522;2023-04-07T03:19:01;101033.00;;;5.90
68911;BMP180;55953;51.650;-0.522;2023-04-07T03:21:31;101029.20;;;5.90
68911;BMP180;55953;51.650;-0.522;2023-04-07T03:23:59;101034.60;;;5.90
68911;BMP180;55953;51.650;-0.522;2023-04-07T03:26:28;101039.60;;;5.90
68911;BMP180;55953;51.650;-0.522;2023-04-07T03:28:56;101034.80;;;5.84
68911;BMP180;55953;51.650;-0.522;2023-04-07T03:31:24;101027.20;;;5.80
68911;BMP180;55953;51.650;-0.522;2023-04-07T03:33:53;101024.80;;;5.80
68911;BMP180;55953;51.650;-0.522;2023-04-07T03:36:21;101033.20;;;5.80
68911;BMP180;55953;51.650;-0.522;2023-04-07T03:38:50;101032.60;;;5.80
68911;BMP180;55953;51.650;-0.522;2023-04-07T03:41:18;101030.00;;;5.74
68911;BMP180;55953;51.650;-0.522;2023-04-07T03:43:47;101032.20;;;5.70
68911;BMP180;55953;51.650;-0.522;2023-04-07T03:46:15;101031.20;;;5.70
68911;BMP180;55953;51.650;-0.522;2023-04-07T03:48:43;101031.40;;;5.70
68911;BMP180;55953;51.650;-0.522;2023-04-07T03:51:11;101033.60;;;5.70
68911;BMP180;55953;51.650;-0.522;2023-04-07T03:53:39;101034.00;;;5.70
68911;BMP180;55953;51.650;-0.522;2023-04-07T03:56:33;101030.40;;;5.70
68911;BMP180;55953;51.650;-0.522;2023-04-07T03:59:00;101032.40;;;5.62
68911;BMP180;55953;51.650;-0.522;2023-04-07T04:01:32;101031.60;;;5.60
68911;BMP180;55953;51.650;-0.522;2023-04-07T04:04:06;101039.00;;;5.60
68911;BMP180;55953;51.650;-0.522;2023-04-07T04:06:34;101037.60;;;5.60
68911;BMP180;55953;51.650;-0.522;2023-04-07T04:09:28;101043.40;;;5.60
68911;BMP180;55953;51.650;-0.522;2023-04-07T04:11:56;101038.40;;;5.60
68911;BMP180;55953;51.650;-0.522;2023-04-07T04:14:25;101038.00;;;5.60
68911;BMP180;55953;51.650;-0.522;2023-04-07T04:16:57;101042.20;;;5.64
68911;BMP180;55953;51.650;-0.522;2023-04-07T04:19:35;101040.40;;;5.70
68911;BMP180;55953;51.650;-0.522;2023-04-07T04:22:10;101047.40;;;5.70
68911;BMP180;55953;51.650;-0.522;2023-04-07T04:24:46;101045.20;;;5.78
68911;BMP180;55953;51.650;-0.522;2023-04-07T04:27:14;101043.20;;;5.80
68911;BMP180;55953;51.650;-0.522;2023-04-07T04:29:43;101053.60;;;5.80
68911;BMP180;55953;51.650;-0.522;2023-04-07T04:32:13;101047.20;;;5.78
68911;BMP180;55953;51.650;-0.522;2023-04-07T04:34:42;101057.80;;;5.80
68911;BMP180;55953;51.650;-0.522;2023-04-07T04:37:11;101058.40;;;5.80
68911;BMP180;55953;51.650;-0.522;2023-04-07T04:39:40;101062.60;;;5.90
68911;BMP180;55953;51.650;-0.522;2023-04-07T04:42:09;101069.00;;;5.90
68911;BMP180;55953;51.650;-0.522;2023-04-07T04:44:37;101067.20;;;6.00
68911;BMP180;55953;51.650;-0.522;2023-04-07T04:47:05;101071.80;;;6.10
68911;BMP180;55953;51.650;-0.522;2023-04-07T04:49:34;101072.20;;;6.10
68911;BMP180;55953;51.650;-0.522;2023-04-07T04:52:03;101076.80;;;6.20
68911;BMP180;55953;51.650;-0.522;2023-04-07T04:54:35;101075.80;;;6.20
68911;BMP180;55953;51.650;-0.522;2023-04-07T04:57:03;101080.80;;;6.30
68911;BMP180;55953;51.650;-0.522;2023-04-07T04:59:33;101081.00;;;6.30
68911;BMP180;55953;51.650;-0.522;2023-04-07T05:02:03;101075.20;;;6.40
68911;BMP180;55953;51.650;-0.522;2023-04-07T05:04:34;101084.60;;;6.40
68911;BMP180;55953;51.650;-0.522;2023-04-07T05:07:19;101082.40;;;6.50
68911;BMP180;55953;51.650;-0.522;2023-04-07T05:09:47;101082.60;;;6.50
68911;BMP180;55953;51.650;-0.522;2023-04-07T05:12:15;101088.20;;;6.56
68911;BMP180;55953;51.650;-0.522;2023-04-07T05:14:47;101088.40;;;6.60
68911;BMP180;55953;51.650;-0.522;2023-04-07T05:17:15;101090.40;;;6.70
68911;BMP180;55953;51.650;-0.522;2023-04-07T05:19:43;101090.20;;;6.70
68911;BMP180;55953;51.650;-0.522;2023-04-07T05:22:16;101098.20;;;6.70
68911;BMP180;55953;51.650;-0.522;2023-04-07T05:24:48;101090.40;;;6.70
68911;BMP180;55953;51.650;-0.522;2023-04-07T05:27:15;101098.40;;;6.70
68911;BMP180;55953;51.650;-0.522;2023-04-07T05:29:44;101100.00;;;6.76
68911;BMP180;55953;51.650;-0.522;2023-04-07T05:32:20;101101.60;;;6.80
68911;BMP180;55953;51.650;-0.522;2023-04-07T05:34:48;101105.20;;;6.80
68911;BMP180;55953;51.650;-0.522;2023-04-07T05:37:16;101108.80;;;6.80
68911;BMP180;55953;51.650;-0.522;2023-04-07T05:39:44;101107.60;;;6.80
68911;BMP180;55953;51.650;-0.522;2023-04-07T05:42:13;101108.20;;;6.80
68911;BMP180;55953;51.650;-0.522;2023-04-07T05:44:42;101112.20;;;6.80
68911;BMP180;55953;51.650;-0.522;2023-04-07T05:47:10;101114.00;;;6.90
68911;BMP180;55953;51.650;-0.522;2023-04-07T05:49:39;101119.80;;;6.92
68911;BMP180;55953;51.650;-0.522;2023-04-07T05:52:13;101113.20;;;6.90
68911;BMP180;55953;51.650;-0.522;2023-04-07T05:54:43;101113.00;;;6.90
68911;BMP180;55953;51.650;-0.522;2023-04-07T05:57:12;101115.00;;;6.86
68911;BMP180;55953;51.650;-0.522;2023-04-07T05:59:43;101115.80;;;6.90
68911;BMP180;55953;51.650;-0.522;2023-04-07T06:02:12;101120.40;;;6.90
68911;BMP180;55953;51.650;-0.522;2023-04-07T06:04:40;101127.60;;;6.90
68911;BMP180;55953;51.650;-0.522;2023-04-07T06:07:09;101129.00;;;6.92
68911;BMP180;55953;51.650;-0.522;2023-04-07T06:09:37;101127.20;;;7.00
68911;BMP180;55953;51.650;-0.522;2023-04-07T06:12:05;101130.00;;;7.00
68911;BMP180;55953;51.650;-0.522;2023-04-07T06:14:34;101132.00;;;7.00
68911;BMP180;55953;51.650;-0.522;2023-04-07T06:17:01;101132.60;;;7.00
68911;BMP180;55953;51.650;-0.522;2023-04-07T06:19:30;101135.80;;;7.08
68911;BMP180;55953;51.650;-0.522;2023-04-07T06:22:00;101139.80;;;7.02
68911;BMP180;55953;51.650;-0.522;2023-04-07T06:24:28;101140.60;;;7.10
68911;BMP180;55953;51.650;-0.522;2023-04-07T06:26:56;101138.20;;;7.10
68911;BMP180;55953;51.650;-0.522;2023-04-07T06:29:24;101138.20;;;7.20
68911;BMP180;55953;51.650;-0.522;2023-04-07T06:31:54;101143.80;;;7.20
68911;BMP180;55953;51.650;-0.522;2023-04-07T06:34:22;101145.60;;;7.10
68911;BMP180;55953;51.650;-0.522;2023-04-07T06:36:50;101145.60;;;7.20
68911;BMP180;55953;51.650;-0.522;2023-04-07T06:39:18;101142.00;;;7.20
68911;BMP180;55953;51.650;-0.522;2023-04-07T06:41:46;101143.20;;;7.20
68911;BMP180;55953;51.650;-0.522;2023-04-07T06:44:14;101149.00;;;7.20
68911;BMP180;55953;51.650;-0.522;2023-04-07T06:46:42;101147.80;;;7.20
68911;BMP180;55953;51.650;-0.522;2023-04-07T06:49:11;101146.40;;;7.20
68911;BMP180;55953;51.650;-0.522;2023-04-07T06:51:39;101147.40;;;7.22
68911;BMP180;55953;51.650;-0.522;2023-04-07T06:54:07;101156.80;;;7.30
68911;BMP180;55953;51.650;-0.522;2023-04-07T06:56:40;101163.80;;;7.30
68911;BMP180;55953;51.650;-0.522;2023-04-07T06:59:08;101169.60;;;7.30
68911;BMP180;55953;51.650;-0.522;2023-04-07T07:01:36;101164.80;;;7.36
68911;BMP180;55953;51.650;-0.522;2023-04-07T07:04:04;101172.20;;;7.40
68911;BMP180;55953;51.650;-0.522;2023-04-07T07:06:34;101172.20;;;7.50
68911;BMP180;55953;51.650;-0.522;2023-04-07T07:09:02;101171.00;;;7.70
68911;BMP180;55953;51.650;-0.522;2023-04-07T07:11:30;101171.80;;;7.90
68911;BMP180;55953;51.650;-0.522;2023-04-07T07:13:58;101174.40;;;8.10
68911;BMP180;55953;51.650;-0.522;2023-04-07T07:16:26;101171.20;;;8.10
68911;BMP180;55953;51.650;-0.522;2023-04-07T07:18:55;101175.60;;;8.06
68911;BMP180;55953;51.650;-0.522;2023-04-07T07:21:23;101169.60;;;8.18
68911;BMP180;55953;51.650;-0.522;2023-04-07T07:23:51;101170.80;;;8.28
68911;BMP180;55953;51.650;-0.522;2023-04-07T07:26:19;101170.00;;;8.30
68911;BMP180;55953;51.650;-0.522;2023-04-07T07:28:47;101169.60;;;8.40
68911;BMP180;55953;51.650;-0.522;2023-04-07T07:31:16;101174.20;;;8.48
68911;BMP180;55953;51.650;-0.522;2023-04-07T07:33:45;101179.20;;;8.50
68911;BMP180;55953;51.650;-0.522;2023-04-07T07:36:16;101181.40;;;8.60
68911;BMP180;55953;51.650;-0.522;2023-04-07T07:38:44;101184.40;;;8.80
68911;BMP180;55953;51.650;-0.522;2023-04-07T07:41:12;101181.20;;;9.04
68911;BMP180;55953;51.650;-0.522;2023-04-07T07:43:39;101187.40;;;9.34
68911;BMP180;55953;51.650;-0.522;2023-04-07T07:46:07;101188.20;;;9.50
68911;BMP180;55953;51.650;-0.522;2023-04-07T07:48:35;101191.40;;;9.62
68911;BMP180;55953;51.650;-0.522;2023-04-07T07:51:03;101192.20;;;9.68
68911;BMP180;55953;51.650;-0.522;2023-04-07T07:53:31;101202.80;;;9.50
68911;BMP180;55953;51.650;-0.522;2023-04-07T07:55:59;101203.60;;;9.50
68911;BMP180;55953;51.650;-0.522;2023-04-07T07:58:28;101201.80;;;9.50
68911;BMP180;55953;51.650;-0.522;2023-04-07T08:00:56;101198.60;;;9.42
68911;BMP180;55953;51.650;-0.522;2023-04-07T08:03:24;101197.40;;;9.50
68911;BMP180;55953;51.650;-0.522;2023-04-07T08:05:53;101204.40;;;9.60
68911;BMP180;55953;51.650;-0.522;2023-04-07T08:08:21;101200.40;;;9.54
68911;BMP180;55953;51.650;-0.522;2023-04-07T08:10:49;101202.00;;;9.58
68911;BMP180;55953;51.650;-0.522;2023-04-07T08:13:17;101204.60;;;9.60
68911;BMP180;55953;51.650;-0.522;2023-04-07T08:15:45;101200.40;;;9.60
68911;BMP180;55953;51.650;-0.522;2023-04-07T08:18:12;101202.00;;;9.70
68911;BMP180;55953;51.650;-0.522;2023-04-07T08:20:41;101196.00;;;9.80
68911;BMP180;55953;51.650;-0.522;2023-04-07T08:23:09;101200.80;;;9.90
68911;BMP180;55953;51.650;-0.522;2023-04-07T08:25:37;101207.20;;;10.00
68911;BMP180;55953;51.650;-0.522;2023-04-07T08:28:06;101198.60;;;10.20
68911;BMP180;55953;51.650;-0.522;2023-04-07T08:30:34;101207.40;;;10.40
68911;BMP180;55953;51.650;-0.522;2023-04-07T08:33:04;101209.60;;;10.64
68911;BMP180;55953;51.650;-0.522;2023-04-07T08:35:32;101204.00;;;10.80
68911;BMP180;55953;51.650;-0.522;2023-04-07T08:38:00;101203.40;;;10.90
68911;BMP180;55953;51.650;-0.522;2023-04-07T08:40:31;101205.00;;;10.90
68911;BMP180;55953;51.650;-0.522;2023-04-07T08:43:04;101206.00;;;11.10
68911;BMP180;55953;51.650;-0.522;2023-04-07T08:45:39;101209.80;;;11.30
68911;BMP180;55953;51.650;-0.522;2023-04-07T08:48:16;101203.60;;;11.24
68911;BMP180;55953;51.650;-0.522;2023-04-07T08:50:45;101205.00;;;11.30
68911;BMP180;55953;51.650;-0.522;2023-04-07T08:53:19;101212.00;;;11.30
68911;BMP180;55953;51.650;-0.522;2023-04-07T08:55:50;101208.40;;;11.30
68911;BMP180;55953;51.650;-0.522;2023-04-07T08:58:18;101208.20;;;11.40
68911;BMP180;55953;51.650;-0.522;2023-04-07T09:00:46;101210.20;;;11.40
68911;BMP180;55953;51.650;-0.522;2023-04-07T09:03:16;101206.20;;;11.48
68911;BMP180;55953;51.650;-0.522;2023-04-07T09:05:45;101210.00;;;11.50
68911;BMP180;55953;51.650;-0.522;2023-04-07T09:08:13;101205.80;;;11.50
68911;BMP180;55953;51.650;-0.522;2023-04-07T09:10:41;101215.60;;;11.60
68911;BMP180;55953;51.650;-0.522;2023-04-07T09:13:09;101214.20;;;11.60
68911;BMP180;55953;51.650;-0.522;2023-04-07T09:15:37;101213.00;;;11.72
68911;BMP180;55953;51.650;-0.522;2023-04-07T09:18:06;101213.00;;;11.90
68911;BMP180;55953;51.650;-0.522;2023-04-07T09:21:03;101213.00;;;11.90
68911;BMP180;55953;51.650;-0.522;2023-04-07T09:23:35;101214.20;;;12.00
68911;BMP180;55953;51.650;-0.522;2023-04-07T09:26:22;101215.60;;;12.10
68911;BMP180;55953;51.650;-0.522;2023-04-07T09:28:58;101212.60;;;12.30
68911;BMP180;55953;51.650;-0.522;2023-04-07T09:32:02;101215.00;;;12.30
68911;BMP180;55953;51.650;-0.522;2023-04-07T09:34:34;101216.00;;;12.20
68911;BMP180;55953;51.650;-0.522;2023-04-07T09:37:04;101215.80;;;12.24
68911;BMP180;55953;51.650;-0.522;2023-04-07T09:39:32;101213.20;;;12.00
68911;BMP180;55953;51.650;-0.522;2023-04-07T09:42:06;101212.60;;;12.00
68911;BMP180;55953;51.650;-0.522;2023-04-07T09:44:39;101213.40;;;12.10
68911;BMP180;55953;51.650;-0.522;2023-04-07T09:47:10;101214.00;;;12.20
68911;BMP180;55953;51.650;-0.522;2023-04-07T09:49:50;101214.20;;;12.20
68911;BMP180;55953;51.650;-0.522;2023-04-07T09:52:25;101214.00;;;12.10
68911;BMP180;55953;51.650;-0.522;2023-04-07T09:55:14;101210.20;;;12.10
68911;BMP180;55953;51.650;-0.522;2023-04-07T09:57:44;101204.60;;;12.20
68911;BMP180;55953;51.650;-0.522;2023-04-07T10:00:12;101210.20;;;12.20
68911;BMP180;55953;51.650;-0.522;2023-04-07T10:02:42;101205.20;;;12.40
68911;BMP180;55953;51.650;-0.522;2023-04-07T10:05:10;101213.20;;;12.50
68911;BMP180;55953;51.650;-0.522;2023-04-07T10:07:39;101210.00;;;12.60
68911;BMP180;55953;51.650;-0.522;2023-04-07T10:10:09;101209.80;;;12.70
68911;BMP180;55953;51.650;-0.522;2023-04-07T10:12:38;101215.40;;;12.70
68911;BMP180;55953;51.650;-0.522;2023-04-07T10:15:11;101209.40;;;12.82
68911;BMP180;55953;51.650;-0.522;2023-04-07T10:17:46;101206.40;;;12.90
68911;BMP180;55953;51.650;-0.522;2023-04-07T10:20:19;101203.80;;;13.00
68911;BMP180;55953;51.650;-0.522;2023-04-07T10:22:51;101208.20;;;13.00
68911;BMP180;55953;51.650;-0.522;2023-04-07T10:25:24;101207.40;;;13.02
68911;BMP180;55953;51.650;-0.522;2023-04-07T10:27:58;101206.80;;;13.14
68911;BMP180;55953;51.650;-0.522;2023-04-07T10:30:30;101211.60;;;13.20
68911;BMP180;55953;51.650;-0.522;2023-04-07T10:32:59;101208.60;;;12.94
68911;BMP180;55953;51.650;-0.522;2023-04-07T10:36:05;101215.40;;;12.90
68911;BMP180;55953;51.650;-0.522;2023-04-07T10:38:34;101213.60;;;13.00
68911;BMP180;55953;51.650;-0.522;2023-04-07T10:41:40;101203.80;;;13.10
68911;BMP180;55953;51.650;-0.522;2023-04-07T10:44:43;101203.80;;;13.10
68911;BMP180;55953;51.650;-0.522;2023-04-07T10:47:08;101205.00;;;13.30
68911;BMP180;55953;51.650;-0.522;2023-04-07T10:49:36;101202.40;;;13.58
68911;BMP180;55953;51.650;-0.522;2023-04-07T10:54:39;101205.20;;;14.00
68911;BMP180;55953;51.650;-0.522;2023-04-07T10:57:15;101201.60;;;14.00
68911;BMP180;55953;51.650;-0.522;2023-04-07T11:02:38;101199.60;;;13.78
68911;BMP180;55953;51.650;-0.522;2023-04-07T11:05:07;101196.60;;;13.90
68911;BMP180;55953;51.650;-0.522;2023-04-07T11:07:48;101198.60;;;14.00
68911;BMP180;55953;51.650;-0.522;2023-04-07T11:10:17;101202.40;;;14.10
68911;BMP180;55953;51.650;-0.522;2023-04-07T11:13:05;101200.00;;;14.10
68911;BMP180;55953;51.650;-0.522;2023-04-07T11:15:35;101198.20;;;14.14
68911;BMP180;55953;51.650;-0.522;2023-04-07T11:20:56;101197.60;;;14.38
68911;BMP180;55953;51.650;-0.522;2023-04-07T11:23:26;101192.00;;;14.60
68911;BMP180;55953;51.650;-0.522;2023-04-07T11:26:02;101192.20;;;14.80
68911;BMP180;55953;51.650;-0.522;2023-04-07T11:28:30;101192.60;;;14.86
68911;BMP180;55953;51.650;-0.522;2023-04-07T11:30:58;101194.40;;;14.60
68911;BMP180;55953;51.650;-0.522;2023-04-07T11:33:29;101197.20;;;14.62
68911;BMP180;55953;51.650;-0.522;2023-04-07T11:36:00;101199.00;;;14.60
68911;BMP180;55953;51.650;-0.522;2023-04-07T11:38:37;101197.60;;;14.40
68911;BMP180;55953;51.650;-0.522;2023-04-07T11:41:13;101202.80;;;14.30
68911;BMP180;55953;51.650;-0.522;2023-04-07T11:43:42;101194.60;;;14.50
68911;BMP180;55953;51.650;-0.522;2023-04-07T11:46:17;101199.80;;;14.70
68911;BMP180;55953;51.650;-0.522;2023-04-07T11:48:45;101199.40;;;14.70
68911;BMP180;55953;51.650;-0.522;2023-04-07T11:51:20;101200.80;;;14.60
68911;BMP180;55953;51.650;-0.522;2023-04-07T11:53:55;101205.20;;;14.40
68911;BMP180;55953;51.650;-0.522;2023-04-07T11:56:24;101202.00;;;14.20
68911;BMP180;55953;51.650;-0.522;2023-04-07T11:58:54;101203.80;;;14.10
68911;BMP180;55953;51.650;-0.522;2023-04-07T12:01:22;101208.00;;;14.40
68911;BMP180;55953;51.650;-0.522;2023-04-07T12:04:03;101207.20;;;14.60
68911;BMP180;55953;51.650;-0.522;2023-04-07T12:06:34;101206.00;;;14.80
68911;BMP180;55953;51.650;-0.522;2023-04-07T12:09:05;101203.80;;;14.72
68911;BMP180;55953;51.650;-0.522;2023-04-07T12:11:34;101203.20;;;14.60
68911;BMP180;55953;51.650;-0.522;2023-04-07T12:14:03;101199.40;;;14.64
68911;BMP180;55953;51.650;-0.522;2023-04-07T12:16:37;101202.40;;;14.90
68911;BMP180;55953;51.650;-0.522;2023-04-07T12:19:05;101205.60;;;15.10
68911;BMP180;55953;51.650;-0.522;2023-04-07T12:21:33;101203.20;;;15.20
68911;BMP180;55953;51.650;-0.522;2023-04-07T12:24:01;101206.00;;;15.40
68911;BMP180;55953;51.650;-0.522;2023-04-07T12:26:29;101199.60;;;15.40
68911;BMP180;55953;51.650;-0.522;2023-04-07T12:28:57;101209.40;;;15.50
68911;BMP180;55953;51.650;-0.522;2023-04-07T12:31:32;101202.60;;;15.60
68911;BMP180;55953;51.650;-0.522;2023-04-07T12:34:00;101199.00;;;15.60
68911;BMP180;55953;51.650;-0.522;2023-04-07T12:36:27;101200.20;;;15.70
68911;BMP180;55953;51.650;-0.522;2023-04-07T12:38:56;101197.60;;;15.76
68911;BMP180;55953;51.650;-0.522;2023-04-07T12:41:24;101206.80;;;15.90
68911;BMP180;55953;51.650;-0.522;2023-04-07T12:43:53;101204.60;;;15.70
68911;BMP180;55953;51.650;-0.522;2023-04-07T12:46:21;101209.00;;;15.50
68911;BMP180;55953;51.650;-0.522;2023-04-07T12:48:49;101206.40;;;15.30
68911;BMP180;55953;51.650;-0.522;2023-04-07T12:51:18;101208.40;;;15.20
68911;BMP180;55953;51.650;-0.522;2023-04-07T12:53:46;101206.80;;;15.20
68911;BMP180;55953;51.650;-0.522;2023-04-07T12:56:15;101207.60;;;15.36
68911;BMP180;55953;51.650;-0.522;2023-04-07T12:58:42;101201.40;;;15.60
68911;BMP180;55953;51.650;-0.522;2023-04-07T13:01:10;101196.80;;;15.76
68911;BMP180;55953;51.650;-0.522;2023-04-07T13:03:39;101201.40;;;15.94
68911;BMP180;55953;51.650;-0.522;2023-04-07T13:06:08;101197.20;;;16.20
68911;BMP180;55953;51.650;-0.522;2023-04-07T13:08:38;101199.60;;;16.40
68911;BMP180;55953;51.650;-0.522;2023-04-07T13:11:07;101192.20;;;16.50
68911;BMP180;55953;51.650;-0.522;2023-04-07T13:13:35;101201.60;;;16.20
68911;BMP180;55953;51.650;-0.522;2023-04-07T13:16:03;101207.60;;;15.86
68911;BMP180;55953;51.650;-0.522;2023-04-07T13:18:31;101206.80;;;15.58
68911;BMP180;55953;51.650;-0.522;2023-04-07T13:20:59;101205.80;;;15.20
68911;BMP180;55953;51.650;-0.522;2023-04-07T13:23:30;101208.20;;;15.02
68911;BMP180;55953;51.650;-0.522;2023-04-07T13:26:10;101205.80;;;14.90
68911;BMP180;55953;51.650;-0.522;2023-04-07T13:28:38;101208.00;;;15.04
68911;BMP180;55953;51.650;-0.522;2023-04-07T13:31:06;101203.60;;;15.32
68911;BMP180;55953;51.650;-0.522;2023-04-07T13:33:34;101200.00;;;15.54
68911;BMP180;55953;51.650;-0.522;2023-04-07T13:36:02;101194.80;;;15.80
68911;BMP180;55953;51.650;-0.522;2023-04-07T13:38:30;101195.00;;;16.10
68911;BMP180;55953;51.650;-0.522;2023-04-07T13:40:58;101198.00;;;16.30
68911;BMP180;55953;51.650;-0.522;2023-04-07T13:43:26;101189.80;;;16.30
68911;BMP180;55953;51.650;-0.522;2023-04-07T13:45:54;101188.00;;;16.40
68911;BMP180;55953;51.650;-0.522;2023-04-07T13:48:23;101186.00;;;16.50
68911;BMP180;55953;51.650;-0.522;2023-04-07T13:50:51;101190.60;;;16.70
68911;BMP180;55953;51.650;-0.522;2023-04-07T13:53:19;101186.40;;;16.60
68911;BMP180;55953;51.650;-0.522;2023-04-07T13:55:48;101182.00;;;16.44
68911;BMP180;55953;51.650;-0.522;2023-04-07T13:58:16;101182.00;;;16.20
68911;BMP180;55953;51.650;-0.522;2023-04-07T14:00:43;101182.60;;;16.00
68911;BMP180;55953;51.650;-0.522;2023-04-07T14:03:11;101179.20;;;15.82
68911;BMP180;55953;51.650;-0.522;2023-04-07T14:05:39;101174.60;;;15.70
68911;BMP180;55953;51.650;-0.522;2023-04-07T14:08:07;101180.40;;;15.72
68911;BMP180;55953;51.650;-0.522;2023-04-07T14:10:35;101181.20;;;15.94
68911;BMP180;55953;51.650;-0.522;2023-04-07T14:13:03;101181.00;;;16.08
68911;BMP180;55953;51.650;-0.522;2023-04-07T14:15:31;101183.20;;;16.30
68911;BMP180;55953;51.650;-0.522;2023-04-07T14:18:01;101178.40;;;16.22
68911;BMP180;55953;51.650;-0.522;2023-04-07T14:20:29;101178.60;;;16.30
68911;BMP180;55953;51.650;-0.522;2023-04-07T14:22:57;101176.80;;;16.30